createdAt,value
2019-04-03T00:01:51.878Z,16.97
2019-04-03T00:04:45.669Z,13.10
2019-04-03T00:07:19.169Z,13.53
2019-04-03T00:09:58.157Z,10.78
2019-04-03T00:12:32.822Z,11.57
2019-04-03T00:15:11.694Z,13.65
2019-04-03T00:18:08.682Z,10.05
2019-04-03T00:21:02.475Z,8.35
2019-04-03T00:23:41.789Z,8.30
2019-04-03T00:26:15.417Z,6.30
2019-04-03T00:28:52.670Z,5.78
2019-04-03T00:31:27.444Z,5.62
2019-04-03T00:34:32.719Z,5.83
2019-04-03T00:37:08.947Z,3.87
2019-04-03T00:39:47.031Z,5.85
2019-04-03T00:42:20.626Z,3.65
2019-04-03T00:44:57.017Z,4.45
2019-04-03T00:47:28.948Z,2.35
2019-04-03T00:50:04.187Z,2.98
2019-04-03T00:52:37.596Z,2.40
2019-04-03T00:55:14.830Z,2.72
2019-04-03T00:57:50.478Z,2.35
2019-04-03T01:00:25.975Z,3.80
2019-04-03T01:02:59.225Z,2.50
2019-04-03T01:05:35.172Z,2.42
2019-04-03T01:08:08.830Z,1.90
2019-04-03T01:10:42.515Z,2.62
2019-04-03T01:13:16.988Z,2.72
2019-04-03T01:15:52.714Z,2.70
2019-04-03T01:18:35.277Z,2.35
2019-04-03T01:23:55.374Z,1.90
2019-04-03T01:26:29.868Z,1.90
2019-04-03T01:29:05.022Z,2.25
2019-04-03T01:31:40.004Z,2.72
2019-04-03T01:34:19.246Z,3.47
2019-04-03T01:37:00.052Z,3.92
2019-04-03T01:39:36.113Z,3.72
2019-04-03T01:42:10.638Z,5.90
2019-04-03T01:44:46.696Z,2.92
2019-04-03T01:47:23.777Z,3.90
2019-04-03T01:50:00.108Z,2.55
2019-04-03T01:52:36.125Z,2.17
2019-04-03T01:55:09.292Z,2.20
2019-04-03T01:57:45.963Z,2.35
2019-04-03T02:00:26.749Z,2.08
2019-04-03T02:03:05.030Z,2.58
2019-04-03T02:05:37.356Z,1.95
2019-04-03T02:08:15.066Z,2.47
2019-04-03T02:10:49.718Z,2.55
2019-04-03T02:13:24.308Z,2.00
2019-04-03T02:16:00.223Z,1.70
2019-04-03T02:18:37.430Z,1.80
2019-04-03T02:21:12.290Z,1.95
2019-04-03T02:23:47.978Z,2.02
2019-04-03T02:26:24.320Z,2.70
2019-04-03T02:29:08.347Z,2.85
2019-04-03T02:34:14.916Z,1.98
2019-04-03T02:36:52.621Z,1.75
2019-04-03T02:39:32.239Z,2.30
2019-04-03T02:42:13.757Z,2.17
2019-04-03T02:44:54.918Z,3.10
2019-04-03T02:47:33.554Z,2.10
2019-04-03T02:50:13.956Z,3.12
2019-04-03T02:52:45.017Z,2.77
2019-04-03T02:55:29.381Z,2.65
2019-04-03T02:58:09.105Z,2.87
2019-04-03T03:00:47.619Z,2.83
2019-04-03T03:06:15.228Z,2.60
2019-04-03T03:09:04.475Z,2.40
2019-04-03T03:11:40.798Z,2.77
2019-04-03T03:14:14.337Z,2.58
2019-04-03T03:16:53.289Z,2.60
2019-04-03T03:19:33.031Z,2.70
2019-04-03T03:22:14.840Z,2.42
2019-04-03T03:24:49.589Z,2.62
2019-04-03T03:27:27.375Z,2.37
2019-04-03T03:30:01.525Z,3.22
2019-04-03T03:32:41.817Z,3.00
2019-04-03T03:35:27.230Z,3.10
2019-04-03T03:37:53.124Z,3.05
2019-04-03T03:40:32.594Z,3.15
2019-04-03T03:43:09.301Z,2.83
2019-04-03T03:45:51.423Z,3.20
2019-04-03T03:48:26.574Z,3.37
2019-04-03T03:51:08.624Z,3.00
2019-04-03T03:53:43.953Z,3.17
2019-04-03T03:56:30.582Z,3.12
2019-04-03T03:59:02.142Z,3.30
2019-04-03T04:01:39.051Z,3.20
2019-04-03T04:04:17.169Z,3.30
2019-04-03T04:06:52.722Z,3.30
2019-04-03T04:09:25.651Z,3.60
2019-04-03T04:11:59.421Z,3.33
2019-04-03T04:14:38.835Z,3.12
2019-04-03T04:17:19.685Z,3.42
2019-04-03T04:19:53.749Z,3.90
2019-04-03T04:22:33.910Z,3.55
2019-04-03T04:27:58.011Z,3.40
2019-04-03T04:33:23.030Z,3.77
2019-04-03T04:35:57.999Z,4.40
2019-04-03T04:41:25.235Z,3.95
2019-04-03T04:44:01.176Z,4.08
2019-04-03T04:46:34.562Z,4.85
2019-04-03T04:49:13.929Z,4.37
2019-04-03T04:51:47.412Z,4.30
2019-04-03T04:54:21.246Z,4.05
2019-04-03T04:59:59.062Z,3.85
2019-04-03T05:02:51.150Z,4.90
2019-04-03T05:05:34.581Z,6.70
2019-04-03T05:08:15.956Z,4.72
2019-04-03T05:10:56.887Z,4.75
2019-04-03T05:13:46.740Z,4.03
2019-04-03T05:16:20.974Z,5.33
2019-04-03T05:18:54.779Z,4.70
2019-04-03T05:21:39.432Z,4.58
2019-04-03T05:24:13.603Z,4.65
2019-04-03T05:29:41.942Z,4.50
2019-04-03T05:32:22.944Z,4.65
2019-04-03T05:34:57.795Z,4.42
2019-04-03T05:40:25.724Z,4.25
2019-04-03T05:43:01.750Z,4.62
2019-04-03T05:45:41.033Z,4.87
2019-04-03T05:48:19.747Z,6.22
2019-04-03T05:50:58.115Z,4.83
2019-04-03T05:53:37.974Z,5.78
2019-04-03T05:56:12.391Z,5.33
2019-04-03T06:01:39.856Z,5.53
2019-04-03T06:07:09.000Z,4.20
2019-04-03T06:09:42.619Z,4.70
2019-04-03T06:12:19.157Z,3.65
2019-04-03T06:14:55.625Z,4.65
2019-04-03T06:17:46.317Z,4.00
2019-04-03T06:20:33.624Z,4.03
2019-04-03T06:23:07.604Z,4.28
2019-04-03T06:25:45.498Z,4.35
2019-04-03T06:28:30.496Z,4.62
2019-04-03T06:31:02.847Z,4.67
2019-04-03T06:33:39.336Z,3.47
2019-04-03T06:36:28.613Z,3.37
2019-04-03T06:39:16.431Z,3.77
2019-04-03T06:41:48.055Z,3.92
2019-04-03T06:44:28.774Z,3.90
2019-04-03T06:46:56.579Z,4.08
2019-04-03T06:52:23.615Z,4.47
2019-04-03T06:55:04.399Z,4.47
2019-04-03T06:57:39.335Z,4.65
2019-04-03T07:00:14.463Z,6.83
2019-04-03T07:08:40.903Z,4.03
2019-04-03T07:11:23.822Z,4.25
2019-04-03T07:16:49.825Z,3.22
2019-04-03T07:19:39.419Z,2.95
2019-04-03T07:22:18.598Z,3.72
2019-04-03T07:25:02.626Z,3.12
2019-04-03T07:27:37.130Z,3.58
2019-04-03T07:30:13.129Z,2.98
2019-04-03T07:32:47.631Z,3.30
2019-04-03T07:35:24.475Z,3.17
2019-04-03T07:38:11.282Z,9.90
2019-04-03T07:40:45.494Z,2.50
2019-04-03T07:43:22.919Z,2.33
2019-04-03T07:45:58.494Z,2.62
2019-04-03T07:48:33.588Z,2.33
2019-04-03T07:51:12.410Z,2.60
2019-04-03T07:53:42.620Z,3.00
2019-04-03T07:56:27.174Z,2.65
2019-04-03T07:59:08.595Z,2.75
2019-04-03T08:01:42.408Z,2.90
2019-04-03T08:04:25.099Z,2.75
2019-04-03T08:06:55.663Z,5.30
2019-04-03T08:09:29.405Z,8.33
2019-04-03T08:12:04.408Z,2.83
2019-04-03T08:14:52.504Z,19.32
2019-04-03T08:17:26.238Z,11.63
2019-04-03T08:20:01.052Z,3.25
2019-04-03T08:22:38.389Z,5.40
2019-04-03T08:25:14.143Z,5.42
2019-04-03T08:27:51.050Z,3.72
2019-04-03T08:30:38.512Z,5.20
2019-04-03T08:33:16.592Z,3.20
2019-04-03T08:35:52.477Z,5.62
2019-04-03T08:38:38.986Z,5.40
2019-04-03T08:41:21.765Z,5.55
2019-04-03T08:46:46.474Z,3.45
2019-04-03T08:49:25.773Z,4.72
2019-04-03T08:52:03.888Z,3.35
2019-04-03T08:54:38.388Z,4.83
2019-04-03T08:57:12.902Z,4.50
2019-04-03T09:02:42.549Z,6.62
2019-04-03T09:05:19.711Z,5.65
2019-04-03T09:07:56.814Z,4.97
2019-04-03T09:10:31.544Z,4.70
2019-04-03T09:13:16.801Z,4.37
2019-04-03T09:15:45.388Z,4.72
2019-04-03T09:18:53.917Z,3.85
2019-04-03T09:22:21.602Z,4.58
2019-04-03T09:25:34.808Z,5.58
2019-04-03T09:34:04.957Z,11.03
2019-04-03T09:36:39.234Z,9.05
2019-04-03T09:39:30.101Z,6.75
2019-04-03T09:44:55.618Z,5.08
2019-04-03T09:47:28.332Z,12.07
2019-04-03T09:50:02.195Z,20.17
2019-04-03T09:55:35.464Z,4.92
2019-04-03T09:58:35.631Z,5.75
2019-04-03T10:01:09.372Z,6.45
2019-04-03T10:03:45.765Z,5.20
2019-04-03T10:06:37.278Z,10.63
2019-04-03T10:12:24.904Z,16.50
2019-04-03T10:14:59.168Z,11.80
2019-04-03T10:17:49.756Z,7.08
2019-04-03T10:29:44.485Z,5.45
2019-04-03T10:51:00.117Z,9.93
2019-04-03T10:53:52.434Z,8.13
2019-04-03T10:56:44.689Z,7.50
2019-04-03T10:59:20.125Z,11.05
2019-04-03T11:02:11.419Z,8.60
2019-04-03T11:05:03.330Z,8.73
2019-04-03T11:08:00.345Z,8.70
2019-04-03T11:19:38.153Z,9.43
2019-04-03T11:22:39.595Z,9.98
2019-04-03T11:25:29.580Z,10.60
2019-04-03T11:28:23.879Z,9.50
2019-04-03T11:31:03.296Z,8.45
2019-04-03T11:42:29.626Z,9.50
2019-04-03T11:45:37.282Z,12.90
2019-04-03T11:51:34.603Z,8.85
2019-04-03T11:54:17.383Z,10.80
2019-04-03T12:30:23.049Z,9.98
2019-04-03T12:33:05.911Z,12.10
2019-04-03T12:35:42.860Z,9.80
2019-04-03T12:51:20.361Z,9.85
2019-04-03T12:57:39.684Z,9.25
2019-04-03T13:00:16.996Z,11.05
2019-04-03T13:08:44.814Z,9.70
2019-04-03T13:32:59.082Z,10.25
2019-04-03T13:47:42.988Z,11.35
2019-04-03T14:02:22.330Z,11.43
2019-04-03T14:04:56.644Z,11.10
2019-04-03T14:10:40.799Z,11.35
2019-04-03T14:16:21.413Z,11.48
2019-04-03T14:18:55.886Z,12.28
2019-04-03T14:27:23.883Z,12.93
2019-04-03T14:39:29.851Z,12.40
2019-04-03T14:42:07.156Z,14.25
2019-04-03T14:45:11.056Z,18.12
2019-04-03T14:47:38.604Z,13.83
2019-04-03T14:56:06.260Z,13.83
2019-04-03T14:58:49.467Z,13.10
2019-04-03T15:04:22.274Z,13.85
2019-04-03T15:10:09.543Z,12.90
2019-04-03T15:12:44.501Z,13.78
2019-04-03T15:24:02.318Z,14.38
2019-04-03T15:26:48.956Z,14.58
2019-04-03T15:29:40.999Z,14.23
2019-04-03T15:32:03.975Z,14.35
2019-04-03T15:40:31.952Z,14.65
2019-04-03T15:46:10.888Z,14.45
2019-04-03T15:51:44.917Z,15.13
2019-04-03T16:00:34.594Z,15.70
2019-04-03T16:03:11.090Z,14.55
2019-04-03T16:05:52.399Z,15.40
2019-04-03T16:08:26.602Z,16.15
2019-04-03T16:11:12.737Z,15.98
2019-04-03T16:19:53.843Z,15.25
2019-04-03T16:22:32.191Z,15.05
2019-04-03T16:25:23.349Z,16.17
2019-04-03T16:28:13.005Z,15.40
2019-04-03T16:30:48.429Z,15.40
2019-04-03T16:36:16.540Z,15.45
2019-04-03T16:47:43.694Z,16.32
2019-04-03T16:50:28.817Z,15.35
2019-04-03T16:56:14.253Z,16.52
2019-04-03T16:59:07.016Z,16.27
2019-04-03T17:04:27.033Z,16.52
2019-04-03T17:07:13.849Z,16.42
2019-04-03T17:09:46.587Z,16.25
2019-04-03T17:15:01.001Z,15.23
2019-04-03T17:17:35.419Z,16.70
2019-04-03T17:20:16.158Z,16.48
2019-04-03T17:22:53.559Z,16.62
2019-04-03T17:25:48.265Z,16.87
2019-04-03T17:28:10.457Z,16.87
2019-04-03T17:30:51.494Z,17.05
2019-04-03T17:33:25.934Z,17.37
2019-04-03T17:36:00.546Z,17.73
2019-04-03T17:38:36.722Z,17.15
2019-04-03T17:41:13.661Z,16.30
2019-04-03T17:43:47.311Z,16.20
2019-04-03T17:46:26.350Z,16.35
2019-04-03T17:49:29.437Z,17.32
2019-04-03T17:51:44.655Z,17.25
2019-04-03T17:54:28.844Z,17.20
2019-04-03T17:57:02.489Z,15.55
2019-04-03T17:59:37.184Z,15.20
2019-04-03T18:02:43.148Z,15.65
2019-04-03T18:05:16.677Z,15.50
2019-04-03T18:07:50.242Z,15.90
2019-04-03T18:10:24.045Z,17.15
2019-04-03T18:15:39.208Z,15.32
2019-04-03T18:18:12.830Z,15.32
2019-04-03T18:20:46.537Z,15.72
2019-04-03T18:23:21.556Z,15.75
2019-04-03T18:25:55.070Z,15.58
2019-04-03T18:28:28.510Z,14.85
2019-04-03T18:31:02.171Z,14.75
2019-04-03T18:33:35.935Z,14.98
2019-04-03T18:39:16.863Z,14.30
2019-04-03T18:41:50.244Z,15.63
2019-04-03T18:44:26.084Z,15.95
2019-04-03T18:47:00.616Z,14.70
2019-04-03T18:49:33.555Z,15.95
2019-04-03T18:52:11.153Z,16.17
2019-04-03T18:54:44.745Z,22.05
2019-04-03T18:57:18.157Z,20.68
2019-04-03T19:00:00.659Z,15.85
2019-04-03T19:02:35.187Z,15.53
2019-04-03T19:05:13.594Z,16.48
2019-04-03T19:07:46.656Z,15.43
2019-04-03T19:10:23.031Z,15.70
2019-04-03T19:12:55.560Z,15.68
2019-04-03T19:15:33.647Z,16.32
2019-04-03T19:18:19.040Z,16.45
2019-04-03T19:20:44.703Z,16.73
2019-04-03T19:23:18.276Z,16.48
2019-04-03T19:25:51.873Z,17.37
2019-04-03T19:28:25.564Z,16.00
2019-04-03T19:30:59.173Z,15.45
2019-04-03T19:33:34.507Z,16.70
2019-04-03T19:36:07.705Z,16.90
2019-04-03T19:38:41.186Z,17.45
2019-04-03T19:41:14.728Z,18.15
2019-04-03T19:43:49.308Z,18.25
2019-04-03T19:46:23.334Z,17.00
2019-04-03T19:51:30.946Z,17.95
2019-04-03T19:54:04.728Z,16.80
2019-04-03T19:56:38.415Z,17.25
2019-04-03T19:59:14.209Z,18.82
2019-04-03T20:01:50.993Z,17.62
2019-04-03T20:04:24.404Z,18.77
2019-04-03T20:06:58.177Z,18.27
2019-04-03T20:09:32.739Z,17.73
2019-04-03T20:12:07.161Z,18.60
2019-04-03T20:14:43.691Z,18.37
2019-04-03T20:17:15.947Z,17.73
2019-04-03T20:19:50.653Z,17.92
2019-04-03T20:22:24.426Z,18.92
2019-04-03T20:25:00.390Z,17.73
2019-04-03T20:27:34.704Z,18.02
2019-04-03T20:30:09.727Z,16.95
2019-04-03T20:32:44.062Z,18.17
2019-04-03T20:35:18.654Z,17.73
2019-04-03T20:37:52.736Z,17.27
2019-04-03T20:40:26.427Z,16.50
2019-04-03T20:43:00.059Z,17.25
2019-04-03T20:45:33.863Z,18.45
2019-04-03T20:48:07.740Z,16.00
2019-04-03T20:50:41.671Z,16.00
2019-04-03T20:55:49.186Z,17.20
2019-04-03T20:58:23.109Z,16.95
2019-04-03T21:03:30.549Z,16.80
2019-04-03T21:06:04.522Z,16.67
2019-04-03T21:08:38.239Z,16.95
2019-04-03T21:11:12.101Z,16.32
2019-04-03T21:13:46.019Z,16.05
2019-04-03T21:16:19.570Z,15.28
2019-04-03T21:18:53.455Z,15.93
2019-04-03T21:24:03.647Z,14.40
2019-04-03T21:26:37.643Z,16.80
2019-04-03T21:29:10.864Z,16.25
2019-04-03T21:31:44.880Z,15.83
2019-04-03T21:34:18.750Z,15.10
2019-04-03T21:36:52.487Z,15.63
2019-04-03T21:39:26.521Z,15.65
2019-04-03T21:42:00.650Z,15.55
2019-04-03T21:44:34.381Z,15.93
2019-04-03T21:49:41.139Z,15.03
2019-04-03T21:54:47.892Z,14.80
2019-04-03T21:57:21.416Z,16.12
2019-04-03T21:59:55.152Z,15.15
2019-04-03T22:02:28.832Z,16.32
2019-04-03T22:05:03.267Z,15.90
2019-04-03T22:07:36.804Z,17.12
2019-04-03T22:10:10.432Z,17.40
2019-04-03T22:12:45.115Z,15.72
2019-04-03T22:15:18.757Z,17.05
2019-04-03T22:17:59.770Z,14.90
2019-04-03T22:20:51.082Z,16.70
2019-04-03T22:23:24.681Z,15.20
2019-04-03T22:26:09.828Z,15.65
2019-04-03T22:28:44.161Z,16.02
2019-04-03T22:31:18.632Z,15.72
2019-04-03T22:33:55.138Z,15.28
2019-04-03T22:36:30.210Z,15.68
2019-04-03T22:39:08.133Z,15.50
2019-04-03T22:41:42.905Z,16.35
2019-04-03T22:44:17.228Z,15.60
2019-04-03T22:46:52.038Z,16.60
2019-04-03T22:49:26.027Z,16.37
2019-04-03T22:51:59.691Z,14.73
2019-04-03T22:54:33.360Z,16.93
2019-04-03T22:57:06.792Z,16.40
2019-04-03T22:59:40.487Z,55.43
2019-04-03T23:02:16.743Z,29.05
2019-04-03T23:04:50.402Z,18.37
2019-04-03T23:07:23.741Z,17.23
2019-04-03T23:09:57.359Z,18.00
2019-04-03T23:12:33.989Z,18.10
2019-04-03T23:15:09.446Z,17.00
2019-04-03T23:17:44.773Z,18.75
2019-04-03T23:20:18.051Z,16.27
2019-04-03T23:22:51.584Z,16.25
2019-04-03T23:25:34.103Z,16.02
2019-04-03T23:28:14.141Z,15.97
2019-04-03T23:30:47.621Z,16.65
2019-04-03T23:33:22.128Z,15.80
2019-04-03T23:35:59.262Z,17.52
2019-04-03T23:38:32.764Z,15.75
2019-04-03T23:41:06.777Z,15.98
2019-04-03T23:46:14.741Z,16.25
2019-04-03T23:48:48.914Z,21.42
2019-04-03T23:51:29.041Z,18.45
2019-04-03T23:54:02.818Z,21.93
2019-04-03T23:56:38.898Z,16.15
2019-04-03T23:59:16.838Z,16.77
